createdAt,value
2019-02-06T00:01:13.490Z,41.47
2019-02-06T00:03:43.781Z,44.20
2019-02-06T00:06:14.126Z,38.27
2019-02-06T00:08:44.439Z,42.77
2019-02-06T00:11:15.062Z,41.57
2019-02-06T00:13:45.382Z,43.30
2019-02-06T00:16:15.765Z,45.37
2019-02-06T00:18:46.146Z,46.50
2019-02-06T00:21:16.475Z,50.13
2019-02-06T00:23:47.769Z,45.63
2019-02-06T00:26:18.301Z,41.40
2019-02-06T00:28:48.607Z,41.27
2019-02-06T00:31:18.966Z,49.50
2019-02-06T00:33:49.288Z,50.30
2019-02-06T00:36:19.633Z,50.90
2019-02-06T00:38:50.081Z,45.00
2019-02-06T00:41:20.420Z,47.03
2019-02-06T00:43:50.725Z,44.70
2019-02-06T00:46:24.045Z,45.47
2019-02-06T00:48:54.625Z,50.13
2019-02-06T00:51:24.967Z,59.03
2019-02-06T00:53:55.297Z,55.40
2019-02-06T00:56:25.669Z,53.47
2019-02-06T00:58:55.992Z,58.17
2019-02-06T01:01:26.326Z,52.50
2019-02-06T01:03:57.236Z,52.93
2019-02-06T01:06:27.957Z,52.27
2019-02-06T01:08:58.291Z,53.27
2019-02-06T01:11:28.917Z,51.07
2019-02-06T01:13:59.237Z,59.07
2019-02-06T01:16:29.684Z,62.00
2019-02-06T01:18:59.922Z,52.07
2019-02-06T01:21:30.262Z,52.43
2019-02-06T01:24:00.622Z,54.23
2019-02-06T01:26:31.262Z,50.10
2019-02-06T01:29:01.580Z,60.60
2019-02-06T01:31:33.665Z,50.07
2019-02-06T01:34:04.038Z,56.33
2019-02-06T01:36:34.380Z,55.63
2019-02-06T01:39:09.032Z,54.13
2019-02-06T01:41:39.417Z,56.90
2019-02-06T01:44:09.729Z,54.73
2019-02-06T01:46:40.167Z,57.60
2019-02-06T01:49:10.801Z,61.70
2019-02-06T01:51:41.157Z,56.30
2019-02-06T01:54:11.477Z,57.67
2019-02-06T01:56:41.877Z,57.43
2019-02-06T01:59:12.276Z,53.33
2019-02-06T02:01:42.780Z,55.87
2019-02-06T02:04:13.596Z,51.10
2019-02-06T02:06:44.026Z,54.83
2019-02-06T02:09:19.545Z,47.37
2019-02-06T02:11:50.607Z,52.87
2019-02-06T02:14:20.982Z,58.37
2019-02-06T02:16:51.657Z,57.13
2019-02-06T02:19:22.026Z,62.80
2019-02-06T02:21:52.627Z,65.30
2019-02-06T02:24:23.395Z,66.63
2019-02-06T02:26:53.890Z,68.67
2019-02-06T02:29:24.560Z,59.03
2019-02-06T02:31:55.750Z,67.00
2019-02-06T02:34:26.097Z,62.27
2019-02-06T02:36:56.483Z,79.58
2019-02-06T02:39:26.947Z,74.03
2019-02-06T02:41:57.361Z,66.13
2019-02-06T02:44:27.779Z,55.93
2019-02-06T02:46:58.143Z,56.50
2019-02-06T02:49:28.506Z,56.47
2019-02-06T02:51:58.908Z,53.83
2019-02-06T02:54:29.320Z,46.73
2019-02-06T02:57:00.217Z,42.20
2019-02-06T02:59:30.819Z,36.83
2019-02-06T03:02:09.546Z,35.90
2019-02-06T03:05:05.116Z,35.23
2019-02-06T03:07:35.454Z,32.87
2019-02-06T03:10:06.905Z,30.20
2019-02-06T03:12:37.302Z,29.27
2019-02-06T03:15:08.625Z,32.23
2019-02-06T03:17:39.644Z,32.57
2019-02-06T03:20:11.233Z,30.40
2019-02-06T03:22:41.540Z,34.17
2019-02-06T03:25:11.891Z,31.30
2019-02-06T03:27:42.203Z,31.63
2019-02-06T03:30:14.605Z,32.30
2019-02-06T03:32:44.917Z,32.67
2019-02-06T03:35:15.350Z,31.63
2019-02-06T03:37:45.708Z,32.33
2019-02-06T03:40:16.481Z,35.10
2019-02-06T03:42:46.790Z,32.90
2019-02-06T03:45:17.522Z,34.67
2019-02-06T03:47:47.917Z,37.07
2019-02-06T03:50:18.632Z,35.23
2019-02-06T03:52:48.942Z,35.67
2019-02-06T03:55:19.278Z,37.23
2019-02-06T03:57:49.586Z,39.10
2019-02-06T04:00:20.322Z,43.00
2019-02-06T04:02:50.640Z,45.17
2019-02-06T04:05:20.981Z,38.77
2019-02-06T04:07:51.303Z,43.43
2019-02-06T04:10:21.753Z,38.37
2019-02-06T04:12:52.078Z,43.70
2019-02-06T04:15:22.429Z,45.73
2019-02-06T04:17:55.497Z,44.50
2019-02-06T04:20:25.829Z,42.43
2019-02-06T04:22:56.239Z,44.80
2019-02-06T04:25:26.572Z,39.97
2019-02-06T04:27:57.200Z,42.17
2019-02-06T04:30:27.627Z,39.33
2019-02-06T04:32:57.937Z,37.07
2019-02-06T04:35:30.071Z,39.13
2019-02-06T04:38:00.437Z,43.73
2019-02-06T04:40:31.112Z,41.50
2019-02-06T04:43:01.485Z,37.97
2019-02-06T04:45:31.825Z,42.73
2019-02-06T04:48:02.122Z,44.07
2019-02-06T04:50:32.461Z,35.57
2019-02-06T04:53:02.792Z,39.83
2019-02-06T04:55:33.421Z,49.50
2019-02-06T04:58:03.728Z,47.47
2019-02-06T05:00:34.093Z,45.60
2019-02-06T05:03:04.395Z,44.85
2019-02-06T05:05:35.793Z,39.83
2019-02-06T05:08:06.113Z,39.90
2019-02-06T05:10:36.487Z,35.28
2019-02-06T05:13:06.855Z,37.40
2019-02-06T05:15:37.432Z,35.60
2019-02-06T05:18:07.803Z,40.07
2019-02-06T05:20:39.785Z,36.33
2019-02-06T05:23:11.094Z,38.70
2019-02-06T05:25:45.458Z,36.80
2019-02-06T05:28:18.215Z,38.13
2019-02-06T05:30:48.697Z,39.80
2019-02-06T05:33:19.231Z,60.97
2019-02-06T05:35:50.306Z,68.53
2019-02-06T05:38:20.716Z,73.28
2019-02-06T05:40:51.533Z,61.67
2019-02-06T05:43:22.041Z,55.00
2019-02-06T05:45:52.583Z,68.70
2019-02-06T05:48:23.459Z,61.10
2019-02-06T05:50:54.539Z,53.57
2019-02-06T05:53:24.979Z,54.13
2019-02-06T05:55:55.634Z,55.73
2019-02-06T05:58:26.053Z,48.40
2019-02-06T06:00:56.454Z,46.60
2019-02-06T06:03:26.830Z,45.07
2019-02-06T06:05:57.212Z,51.23
2019-02-06T06:08:27.621Z,45.97
2019-02-06T06:10:58.001Z,51.87
2019-02-06T06:13:28.327Z,59.03
2019-02-06T06:15:58.623Z,66.10
2019-02-06T06:18:29.041Z,72.70
2019-02-06T06:20:59.387Z,74.57
2019-02-06T06:23:31.213Z,79.23
2019-02-06T06:26:01.539Z,83.03
2019-02-06T06:28:31.894Z,77.50
2019-02-06T06:31:02.305Z,85.17
2019-02-06T06:33:33.144Z,89.37
2019-02-06T06:36:03.467Z,88.47
2019-02-06T06:38:33.825Z,92.23
2019-02-06T06:41:04.159Z,92.53
2019-02-06T06:43:34.516Z,89.83
2019-02-06T06:46:04.985Z,95.03
2019-02-06T06:48:35.554Z,115.77
2019-02-06T06:51:05.881Z,97.30
2019-02-06T06:53:37.400Z,96.27
2019-02-06T06:56:07.724Z,101.03
2019-02-06T06:58:38.045Z,97.03
2019-02-06T07:01:10.857Z,104.60
2019-02-06T07:03:40.393Z,95.20
2019-02-06T07:06:10.701Z,107.53
2019-02-06T07:08:41.136Z,96.83
2019-02-06T07:11:11.441Z,89.77
2019-02-06T07:13:41.791Z,85.40
2019-02-06T07:16:12.105Z,89.03
2019-02-06T07:18:42.458Z,80.33
2019-02-06T07:21:12.786Z,80.03
2019-02-06T07:23:43.161Z,80.30
2019-02-06T07:26:13.505Z,72.40
2019-02-06T07:28:43.878Z,73.17
2019-02-06T07:31:14.208Z,77.83
2019-02-06T07:33:44.851Z,74.07
2019-02-06T07:36:15.162Z,78.70
2019-02-06T07:38:45.686Z,71.10
2019-02-06T07:41:16.016Z,69.90
2019-02-06T07:43:46.678Z,73.13
2019-02-06T07:46:17.027Z,80.20
2019-02-06T07:48:47.373Z,78.60
2019-02-06T07:51:17.737Z,73.90
2019-02-06T07:53:48.043Z,68.43
2019-02-06T07:56:18.410Z,74.70
2019-02-06T07:58:50.757Z,60.90
2019-02-06T08:01:20.691Z,62.77
2019-02-06T08:03:51.382Z,58.77
2019-02-06T08:06:21.816Z,63.57
2019-02-06T08:08:52.767Z,57.37
2019-02-06T08:11:24.179Z,57.47
2019-02-06T08:13:54.854Z,55.63
2019-02-06T08:16:25.114Z,56.13
2019-02-06T08:18:55.682Z,55.87
2019-02-06T08:21:26.033Z,55.65
2019-02-06T08:23:56.541Z,52.47
2019-02-06T08:26:26.910Z,58.20
2019-02-06T08:28:57.291Z,57.58
2019-02-06T08:31:27.688Z,48.17
2019-02-06T08:33:58.012Z,46.63
2019-02-06T08:36:28.417Z,50.73
2019-02-06T08:38:59.053Z,51.43
2019-02-06T08:41:29.503Z,47.00
2019-02-06T08:44:01.887Z,44.57
2019-02-06T08:46:31.823Z,50.50
2019-02-06T08:49:02.543Z,52.43
2019-02-06T08:51:32.965Z,49.53
2019-02-06T08:54:03.329Z,46.05
2019-02-06T08:56:33.643Z,49.30
2019-02-06T08:59:04.585Z,50.70
2019-02-06T09:01:34.983Z,57.07
2019-02-06T09:04:05.413Z,48.13
2019-02-06T09:06:36.014Z,47.87
2019-02-06T09:09:10.580Z,52.03
2019-02-06T09:11:40.890Z,46.17
2019-02-06T09:14:11.329Z,55.77
2019-02-06T09:16:41.645Z,56.27
2019-02-06T09:19:12.015Z,62.87
2019-02-06T09:21:42.332Z,56.03
2019-02-06T09:24:12.650Z,57.00
2019-02-06T09:26:43.024Z,60.60
2019-02-06T09:29:13.343Z,56.63
2019-02-06T09:31:43.644Z,58.13
2019-02-06T09:34:14.385Z,56.47
2019-02-06T09:36:44.695Z,51.37
2019-02-06T09:39:15.109Z,56.17
2019-02-06T09:41:45.451Z,59.00
2019-02-06T09:44:15.891Z,55.43
2019-02-06T09:46:46.216Z,52.63
2019-02-06T09:49:16.862Z,53.37
2019-02-06T09:51:47.214Z,49.73
2019-02-06T09:54:17.547Z,50.63
2019-02-06T09:56:50.595Z,48.83
2019-02-06T09:59:19.829Z,46.20
2019-02-06T10:01:50.154Z,43.87
2019-02-06T10:04:20.486Z,44.20
2019-02-06T10:06:50.785Z,45.07
2019-02-06T10:09:23.099Z,44.53
2019-02-06T10:11:53.064Z,43.17
2019-02-06T10:14:23.437Z,40.67
2019-02-06T10:16:53.866Z,38.17
2019-02-06T10:19:24.170Z,41.27
2019-02-06T10:21:54.578Z,43.27
2019-02-06T10:24:24.862Z,41.17
2019-02-06T10:26:57.358Z,38.37
2019-02-06T10:29:27.663Z,40.67
2019-02-06T10:31:57.952Z,42.03
2019-02-06T10:34:28.284Z,41.37
2019-02-06T10:36:58.569Z,43.77
2019-02-06T10:39:34.540Z,41.83
2019-02-06T10:42:00.815Z,41.20
2019-02-06T10:44:31.564Z,103.33
2019-02-06T10:47:03.006Z,46.80
2019-02-06T10:49:33.341Z,49.33
2019-02-06T10:52:03.641Z,42.07
2019-02-06T10:54:34.013Z,44.17
2019-02-06T10:57:04.530Z,41.80
2019-02-06T10:59:34.873Z,39.97
2019-02-06T11:02:05.289Z,42.83
2019-02-06T11:04:35.739Z,40.47
2019-02-06T11:07:08.261Z,46.60
2019-02-06T11:09:45.870Z,37.08
2019-02-06T11:12:09.999Z,41.23
2019-02-06T11:14:40.347Z,37.87
2019-02-06T11:17:10.794Z,38.17
2019-02-06T11:19:43.136Z,38.20
2019-02-06T11:22:13.110Z,36.97
2019-02-06T11:24:43.483Z,35.73
2019-02-06T11:27:13.943Z,35.60
2019-02-06T11:29:44.500Z,31.67
2019-02-06T11:32:14.852Z,34.03
2019-02-06T11:34:45.216Z,33.00
2019-02-06T11:37:15.543Z,34.50
2019-02-06T11:39:57.330Z,31.83
2019-02-06T11:42:18.232Z,31.23
2019-02-06T11:44:48.848Z,30.33
2019-02-06T11:47:19.104Z,30.80
2019-02-06T11:49:51.857Z,34.30
2019-02-06T11:52:22.466Z,34.70
2019-02-06T11:54:52.956Z,32.07
2019-02-06T11:57:24.233Z,32.00
2019-02-06T11:59:54.838Z,32.70
2019-02-06T12:02:36.757Z,30.77
2019-02-06T12:04:57.869Z,30.63
2019-02-06T12:07:28.196Z,31.80
2019-02-06T12:10:09.013Z,32.27
2019-02-06T12:12:30.548Z,31.87
2019-02-06T12:15:00.914Z,31.17
2019-02-06T12:17:31.415Z,31.03
2019-02-06T12:20:02.191Z,32.97
2019-02-06T12:22:32.554Z,30.80
2019-02-06T12:25:02.921Z,31.07
2019-02-06T12:27:33.238Z,30.60
2019-02-06T12:30:05.143Z,33.03
2019-02-06T12:32:35.638Z,32.20
2019-02-06T12:35:07.150Z,31.50
2019-02-06T12:37:37.466Z,30.37
2019-02-06T12:40:08.010Z,30.17
2019-02-06T12:42:38.317Z,30.23
2019-02-06T12:45:10.483Z,30.47
2019-02-06T12:47:40.821Z,30.87
2019-02-06T12:50:11.931Z,32.83
2019-02-06T12:52:42.262Z,31.17
2019-02-06T12:55:19.537Z,31.33
2019-02-06T12:57:48.599Z,30.27
2019-02-06T13:00:22.427Z,31.20
2019-02-06T13:02:56.358Z,30.17
2019-02-06T13:05:25.053Z,29.67
2019-02-06T13:07:55.697Z,32.33
2019-02-06T13:10:33.461Z,29.67
2019-02-06T13:12:58.006Z,30.17
2019-02-06T13:15:28.398Z,28.83
2019-02-06T13:17:58.711Z,29.23
2019-02-06T13:20:30.045Z,29.13
2019-02-06T13:23:00.360Z,27.50
2019-02-06T13:25:30.775Z,28.37
2019-02-06T13:28:01.214Z,28.00
2019-02-06T13:30:34.187Z,28.23
2019-02-06T13:33:06.500Z,27.23
2019-02-06T13:35:38.012Z,27.90
2019-02-06T13:38:08.609Z,26.77
2019-02-06T13:40:45.561Z,26.70
2019-02-06T13:43:10.994Z,27.10
2019-02-06T13:45:43.846Z,27.63
2019-02-06T13:48:14.309Z,26.70
2019-02-06T13:50:44.965Z,26.77
2019-02-06T13:53:15.315Z,29.27
2019-02-06T13:55:45.778Z,26.90
2019-02-06T13:58:20.126Z,25.27
2019-02-06T14:00:48.298Z,26.17
2019-02-06T14:03:18.720Z,28.37
2019-02-06T14:05:49.269Z,27.93
2019-02-06T14:08:19.720Z,27.87
2019-02-06T14:11:00.296Z,28.87
2019-02-06T14:13:22.968Z,29.17
2019-02-06T14:15:53.639Z,28.87
2019-02-06T14:18:24.167Z,27.87
2019-02-06T14:20:55.112Z,26.83
2019-02-06T14:23:32.545Z,26.10
2019-02-06T14:26:33.149Z,26.70
2019-02-06T14:29:32.693Z,28.27
2019-02-06T14:32:31.882Z,27.07
2019-02-06T14:35:33.932Z,28.27
2019-02-06T14:38:40.638Z,27.30
2019-02-06T14:41:36.022Z,28.57
2019-02-06T14:44:26.167Z,26.23
2019-02-06T14:47:27.862Z,25.47
2019-02-06T14:50:17.752Z,26.73
2019-02-06T14:53:07.680Z,27.13
2019-02-06T14:56:10.092Z,26.53
2019-02-06T14:59:23.656Z,27.87
2019-02-06T15:02:38.114Z,30.53
2019-02-06T15:05:33.862Z,27.20
2019-02-06T15:08:45.645Z,29.00
2019-02-06T15:11:40.790Z,29.20
2019-02-06T15:14:33.258Z,29.17
2019-02-06T15:18:02.930Z,26.20
2019-02-06T15:21:14.185Z,27.10
2019-02-06T15:24:16.290Z,27.47
2019-02-06T15:27:15.929Z,27.43
2019-02-06T15:30:15.765Z,31.17
2019-02-06T15:33:13.281Z,30.33
2019-02-06T15:36:03.820Z,28.10
2019-02-06T15:39:18.339Z,29.33
2019-02-06T15:42:20.014Z,30.90
2019-02-06T15:45:10.866Z,31.03
2019-02-06T15:48:06.882Z,30.57
2019-02-06T15:51:09.582Z,32.67
2019-02-06T15:53:51.311Z,32.03
2019-02-06T15:57:13.547Z,34.77
2019-02-06T16:00:19.881Z,33.33
2019-02-06T16:03:18.138Z,32.20
2019-02-06T16:06:36.393Z,38.07
2019-02-06T16:09:51.022Z,36.63
2019-02-06T16:13:14.265Z,38.47
2019-02-06T16:16:31.907Z,37.37
2019-02-06T16:19:45.270Z,38.00
2019-02-06T16:22:57.018Z,37.10
2019-02-06T16:25:53.291Z,40.97
2019-02-06T16:28:43.752Z,44.17
2019-02-06T16:31:57.473Z,46.33
2019-02-06T16:35:01.679Z,40.60
2019-02-06T16:37:54.024Z,42.57
2019-02-06T16:40:50.037Z,45.17
2019-02-06T16:44:10.897Z,49.20
2019-02-06T16:46:55.592Z,46.77
2019-02-06T16:49:49.177Z,50.77
2019-02-06T16:52:46.754Z,46.90
2019-02-06T16:55:41.498Z,47.77
2019-02-06T16:58:38.318Z,51.10
2019-02-06T17:01:43.225Z,48.50
2019-02-06T17:05:00.426Z,49.27
2019-02-06T17:08:00.877Z,51.63
2019-02-06T17:11:05.622Z,49.97
2019-02-06T17:14:12.921Z,53.30
2019-02-06T17:17:35.942Z,52.90
2019-02-06T17:21:05.699Z,53.67
2019-02-06T17:24:16.164Z,51.23
2019-02-06T17:27:01.367Z,56.17
2019-02-06T17:30:16.156Z,57.53
2019-02-06T17:33:27.481Z,56.00
2019-02-06T17:36:28.784Z,70.00
2019-02-06T17:39:46.787Z,57.67
2019-02-06T17:42:47.006Z,47.17
2019-02-06T17:45:47.766Z,46.73
2019-02-06T17:48:40.122Z,56.17
2019-02-06T17:51:40.754Z,103.67
2019-02-06T17:54:18.404Z,98.27
2019-02-06T17:56:50.030Z,78.03
2019-02-06T17:59:20.642Z,66.50
2019-02-06T18:01:55.796Z,82.10
2019-02-06T18:04:35.692Z,59.33
2019-02-06T18:07:06.731Z,77.13
2019-02-06T18:09:37.435Z,59.57
2019-02-06T18:12:08.362Z,65.93
2019-02-06T18:14:39.006Z,83.57
2019-02-06T18:17:09.348Z,124.27
2019-02-06T18:19:40.886Z,76.57
2019-02-06T18:22:11.371Z,46.23
2019-02-06T18:24:41.714Z,49.73
2019-02-06T18:27:12.764Z,53.43
2019-02-06T18:29:43.166Z,57.53
2019-02-06T18:32:15.118Z,50.77
2019-02-06T18:34:45.667Z,50.93
2019-02-06T18:37:16.263Z,62.23
2019-02-06T18:39:46.737Z,58.10
2019-02-06T18:42:17.296Z,55.13
2019-02-06T18:44:49.791Z,57.97
2019-02-06T18:47:23.530Z,62.87
2019-02-06T18:49:54.084Z,58.10
2019-02-06T18:52:24.573Z,64.07
2019-02-06T18:54:57.373Z,71.40
2019-02-06T18:57:27.758Z,70.33
2019-02-06T18:59:58.785Z,65.73
2019-02-06T19:02:29.320Z,67.83
2019-02-06T19:05:00.103Z,78.20
2019-02-06T19:07:30.505Z,68.77
2019-02-06T19:10:00.896Z,65.47
2019-02-06T19:12:32.320Z,62.53
2019-02-06T19:15:03.119Z,66.10
2019-02-06T19:17:33.570Z,61.80
2019-02-06T19:20:04.587Z,49.30
2019-02-06T19:22:34.994Z,56.30
2019-02-06T19:25:06.472Z,55.10
2019-02-06T19:27:36.851Z,55.27
2019-02-06T19:30:20.000Z,58.33
2019-02-06T19:32:52.397Z,60.60
2019-02-06T19:35:22.784Z,60.53
2019-02-06T19:37:54.175Z,55.37
2019-02-06T19:40:24.576Z,61.70
2019-02-06T19:43:00.491Z,64.07
2019-02-06T19:45:27.670Z,60.77
2019-02-06T19:47:58.406Z,63.27
2019-02-06T19:50:33.976Z,65.83
2019-02-06T19:53:04.597Z,69.37
2019-02-06T19:55:34.999Z,71.03
2019-02-06T19:58:05.943Z,78.60
2019-02-06T20:00:36.334Z,72.93
2019-02-06T20:03:08.171Z,73.70
2019-02-06T20:05:38.773Z,77.92
2019-02-06T20:08:09.285Z,70.73
2019-02-06T20:10:42.040Z,72.23
2019-02-06T20:13:14.489Z,71.03
2019-02-06T20:15:44.801Z,76.50
2019-02-06T20:18:16.589Z,70.80
2019-02-06T20:20:47.158Z,73.83
2019-02-06T20:23:17.914Z,70.07
2019-02-06T20:25:48.348Z,67.80
2019-02-06T20:28:18.907Z,72.60
2019-02-06T20:30:49.530Z,67.70
2019-02-06T20:33:20.437Z,69.97
2019-02-06T20:35:50.790Z,65.67
2019-02-06T20:38:21.189Z,64.92
2019-02-06T20:40:51.524Z,65.87
2019-02-06T20:43:23.180Z,62.93
2019-02-06T20:45:54.375Z,67.50
2019-02-06T20:48:25.480Z,69.73
2019-02-06T20:50:57.659Z,69.03
2019-02-06T20:53:29.851Z,77.77
2019-02-06T20:56:00.334Z,75.40
2019-02-06T20:58:31.676Z,81.93
2019-02-06T21:01:02.362Z,83.57
2019-02-06T21:03:32.717Z,74.90
2019-02-06T21:06:03.430Z,71.07
2019-02-06T21:08:34.255Z,61.23
2019-02-06T21:11:04.766Z,64.63
2019-02-06T21:13:35.281Z,59.90
2019-02-06T21:16:06.154Z,62.67
2019-02-06T21:18:36.548Z,66.73
2019-02-06T21:21:06.885Z,71.50
2019-02-06T21:23:37.306Z,64.17
2019-02-06T21:26:07.681Z,67.43
2019-02-06T21:28:39.577Z,69.07
2019-02-06T21:31:09.913Z,68.20
2019-02-06T21:33:40.329Z,71.20
2019-02-06T21:36:10.662Z,72.60
2019-02-06T21:38:41.094Z,74.90
2019-02-06T21:41:11.419Z,73.97
2019-02-06T21:43:44.112Z,71.73
2019-02-06T21:46:13.790Z,74.97
2019-02-06T21:48:44.309Z,76.73
2019-02-06T21:51:14.780Z,82.10
2019-02-06T21:53:49.185Z,83.37
2019-02-06T21:56:19.637Z,86.93
2019-02-06T21:58:50.056Z,95.17
2019-02-06T22:01:20.501Z,102.20
2019-02-06T22:03:50.923Z,103.93
2019-02-06T22:06:21.264Z,102.57
2019-02-06T22:08:51.702Z,102.93
2019-02-06T22:11:22.107Z,90.80
2019-02-06T22:13:55.100Z,98.97
2019-02-06T22:16:24.530Z,78.97
2019-02-06T22:18:54.957Z,76.00
2019-02-06T22:21:25.349Z,74.83
2019-02-06T22:23:56.160Z,72.73
2019-02-06T22:26:26.483Z,75.27
2019-02-06T22:28:56.820Z,71.83
2019-02-06T22:31:27.203Z,67.33
2019-02-06T22:33:57.516Z,62.20
2019-02-06T22:36:27.939Z,61.47
2019-02-06T22:38:58.350Z,60.83
2019-02-06T22:41:28.729Z,60.90
2019-02-06T22:44:06.270Z,64.63
2019-02-06T22:46:31.069Z,62.03
2019-02-06T22:49:01.417Z,64.90
2019-02-06T22:51:32.211Z,60.47
2019-02-06T22:54:02.563Z,63.57
2019-02-06T22:56:33.073Z,58.10
2019-02-06T22:59:03.495Z,64.40
2019-02-06T23:01:39.078Z,61.57
2019-02-06T23:04:10.256Z,58.77
2019-02-06T23:06:40.561Z,60.87
2019-02-06T23:09:11.081Z,60.40
2019-02-06T23:11:41.689Z,64.30
2019-02-06T23:14:17.756Z,67.33
2019-02-06T23:16:44.611Z,64.50
2019-02-06T23:19:15.155Z,60.13
2019-02-06T23:21:45.643Z,61.47
2019-02-06T23:24:15.973Z,63.58
2019-02-06T23:26:46.423Z,62.40
2019-02-06T23:29:17.203Z,62.43
2019-02-06T23:31:49.902Z,60.03
2019-02-06T23:34:22.808Z,64.70
2019-02-06T23:36:53.582Z,63.77
2019-02-06T23:39:23.949Z,61.47
2019-02-06T23:41:54.416Z,57.43
2019-02-06T23:44:36.164Z,59.23
2019-02-06T23:47:06.557Z,58.90
2019-02-06T23:49:36.894Z,62.55
2019-02-06T23:52:07.724Z,57.93
2019-02-06T23:54:38.508Z,62.93
2019-02-06T23:57:08.812Z,58.70
2019-02-06T23:59:39.330Z,65.03
